EW5742 Weather Reports


Display with metric or nautical units.
time (UTC)temp
F
wind
direction
speed
MPH
gust
MPH
rain 1hr
in
rain 24hr
in
rain mn
in
humidity
%
barometer
mb
20190519101513 66 234 0.0 0.0 0.00 0.00 0.00 98 1018.1
20190519100006 66 234 0.0 0.0 0.00 0.00 0.00 98 1017.9
20190519094731 66 234 0.0 0.0 0.00 0.00 0.00 97 1017.9
20190519093358 67 234 0.0 0.0 0.00 0.00 0.00 97 1017.8
20190519091815 67 234 0.0 0.0 0.00 0.00 0.00 97 1017.6
20190519090158 67 240 0.0 0.0 0.00 0.00 0.00 97 1017.5
20190519084729 67 169 0.0 0.0 0.00 0.00 0.00 97 1017.5
20190519083119 67 169 0.0 0.0 0.00 0.00 0.00 97 1017.6
20190519081626 68 169 0.0 0.0 0.00 0.00 0.00 97 1017.4
20190519080119 68 165 0.0 0.0 0.00 0.00 0.00 97 1017.2
20190519074739 68 165 0.0 0.0 0.00 0.00 0.00 97 1017.3
20190519073222 68 164 0.0 0.0 0.00 0.00 0.00 97 1017.1
20190519071648 68 163 0.0 0.0 0.00 0.00 0.00 97 1017.2
20190519070215 68 156 0.0 0.0 0.00 0.00 0.00 97 1017.2
20190519064601 68 156 0.0 0.0 0.00 0.00 0.00 97 1017.2
20190519063051 68 156 0.0 0.0 0.00 0.00 0.00 96 1017.4
20190519061558 69 156 0.0 0.0 0.00 0.00 0.00 96 1017.3
20190519060105 69 157 0.0 0.0 0.00 0.00 0.00 96 1017.3
20190519054614 69 155 0.0 0.0 0.00 0.00 0.00 96 1017.5
20190519053105 70 155 0.0 0.0 0.00 0.00 0.00 96 1017.5
20190519051606 70 155 0.0 0.0 0.00 0.00 0.00 96 1017.5
20190519050110 70 155 0.0 0.0 0.00 0.00 0.00 96 1017.7
20190519044601 70 155 0.0 0.0 0.00 0.00 0.00 96 1017.6
20190519041621 70 181 0.0 0.0 0.00 0.00 0.00 95 1017.5
20190519040109 70 175 0.0 0.0 0.00 0.00 0.00 95 1017.5
20190519034559 71 199 0.0 0.0 0.00 0.00 0.00 95 1017.5
20190519033048 71 198 0.0 0.0 0.00 0.00 0.00 95 1017.5
20190519031613 71 198 0.0 0.0 0.00 0.00 0.00 94 1017.3
20190519030057 72 165 0.0 0.0 0.00 0.00 0.00 94 1017.2
20190519024554 72 170 0.0 0.0 0.00 0.00 0.00 94 1017.2
20190519023042 72 195 0.0 2.0 0.00 0.00 0.00 93 1016.9
20190519021602 72 172 0.0 1.0 0.00 0.00 0.00 93 1016.8
20190519020023 72 214 0.0 1.0 0.00 0.00 0.00 92 1016.6
20190519014528 73 116 0.0 1.0 0.00 0.00 0.00 91 1016.6
20190519013019 73 165 0.0 0.0 0.00 0.00 0.00 91 1016.4
20190519011540 73 217 0.0 1.0 0.00 0.00 0.00 91 1016.2
20190519010020 73 136 0.0 0.0 0.00 0.00 0.00 91 1016.1
20190519004510 74 233 0.0 1.0 0.00 0.00 0.00 90 1015.9
20190519003034 74 206 0.0 2.0 0.00 0.00 0.00 89 1015.8
20190519001511 75 158 1.0 5.0 0.00 0.00 0.00 89 1015.7
20190519000010 75 207 0.0 2.0 0.00 0.00 0.00 87 1015.6
20190518234531 76 81 0.0 6.0 0.00 0.00 0.00 86 1015.4
20190518233029 77 256 0.0 4.0 0.00 0.00 0.00 84 1015.3
20190518231507 77 176 2.0 7.0 0.00 0.00 0.00 83 1015.2
20190518230025 78 154 0.0 6.0 0.00 0.00 0.00 81 1015.1
20190518224513 79 162 1.0 5.0 0.00 0.00 0.00 79 1014.9
20190518223004 80 153 2.0 10.0 0.00 0.00 0.00 77 1014.9
20190518221517 82 241 1.0 8.0 0.00 0.00 0.00 74 1014.7
20190518220012 81 236 0.0 10.0 0.00 0.00 0.00 74 1014.6
20190518214507 82 219 1.0 7.0 0.00 0.00 0.00 72 1014.5
20190518213006 84 179 0.0 6.0 0.00 0.00 0.00 71 1014.4
20190518211704 84 187 0.0 5.0 0.00 0.00 0.00 68 1014.3
20190518210245 85 160 4.0 7.0 0.00 0.00 0.00 67 1014.3
20190518204630 85 246 1.0 6.0 0.00 0.00 0.00 67 1014.4
20190518203255 84 226 2.0 10.0 0.00 0.00 0.00 68 1014.5
20190518201622 84 197 3.0 10.0 0.00 0.00 0.00 69 1014.5
20190518200142 84 119 3.0 11.0 0.00 0.00 0.00 69 1014.6
20190518194629 85 128 3.0 10.0 0.00 0.00 0.00 68 1014.6
20190518193138 86 195 2.0 9.0 0.00 0.00 0.00 67 1014.6
20190518191637 87 236 2.0 8.0 0.00 0.00 0.00 64 1014.7
20190518190135 89 136 2.0 8.0 0.00 0.00 0.00 61 1014.8
20190518184702 88 174 3.0 9.0 0.00 0.00 0.00 63 1015.0
20190518183204 87 161 3.0 9.0 0.00 0.00 0.00 63 1015.0
20190518181611 86 160 4.0 11.0 0.00 0.00 0.00 65 1014.9
20190518180223 86 218 4.0 13.0 0.00 0.00 0.00 64 1015.0
20190518174719 87 195 5.0 13.0 0.00 0.00 0.00 62 1015.1
20190518173138 88 298 2.0 10.0 0.00 0.00 0.00 62 1015.2
20190518171647 89 139 6.0 11.0 0.00 0.00 0.00 60 1015.3
20190518170128 93 253 2.0 6.0 0.00 0.00 0.00 46 1015.3
20190518164622 92 105 0.0 5.0 0.00 0.00 0.00 45 1015.2
20190518163058 91 295 2.0 10.0 0.00 0.00 0.00 49 1015.4
20190518161602 91 56 0.0 3.0 0.00 0.00 0.00 51 1015.5
20190518160123 89 333 0.0 5.0 0.00 0.00 0.00 52 1015.6
20190518154606 90 295 0.0 5.0 0.00 0.00 0.00 52 1015.6
20190518153142 89 314 0.0 6.0 0.00 0.00 0.00 56 1015.6
20190518151652 88 31 0.0 5.0 0.00 0.00 0.00 59 1015.6
20190518150058 87 349 0.0 3.0 0.00 0.00 0.00 61 1015.7
20190518144629 86 187 0.0 2.0 0.00 0.00 0.00 62 1015.7
20190518143050 85 194 0.0 1.0 0.00 0.00 0.00 63 1015.6
20190518141604 84 169 0.0 1.0 0.00 0.00 0.00 66 1015.6
20190518140101 83 357 0.0 3.0 0.00 0.00 0.00 67 1015.6
20190518134531 83 332 0.0 3.0 0.00 0.00 0.00 70 1015.6
20190518133034 82 280 0.0 1.0 0.00 0.00 0.00 72 1015.4
20190518131517 80 158 0.0 1.0 0.00 0.00 0.00 73 1015.3
20190518130007 79 321 0.0 4.0 0.00 0.00 0.00 75 1015.3
20190518124505 78 255 0.0 1.0 0.00 0.00 0.00 77 1015.3
20190518123123 76 121 0.0 1.0 0.00 0.00 0.00 80 1015.1
20190518121745 75 213 0.0 2.0 0.00 0.00 0.00 83 1015.0
20190518120145 73 248 0.0 0.0 0.00 0.00 0.00 87 1014.9
20190518114620 71 250 0.0 0.0 0.00 0.00 0.00 89 1014.9
20190518113201 70 249 0.0 0.0 0.00 0.00 0.00 91 1014.9
20190518111609 70 252 0.0 0.0 0.00 0.00 0.00 92 1014.7
20190518110142 68 226 0.0 0.0 0.00 0.00 0.00 94 1014.7
20190518104625 67 226 0.0 0.0 0.00 0.00 0.00 95 1014.7
20190518103114 67 226 0.0 0.0 0.00 0.00 0.00 95 1014.6